createdAt,value
2017-07-16T00:00:07.918Z,1017.12
2017-07-16T00:00:48.456Z,1017.11
2017-07-16T00:01:28.997Z,1017.11
2017-07-16T00:02:09.552Z,1017.08
2017-07-16T00:02:50.079Z,1017.09
2017-07-16T00:03:30.614Z,1017.08
2017-07-16T00:04:11.143Z,1017.06
2017-07-16T00:04:51.685Z,1017.09
2017-07-16T00:05:32.225Z,1017.07
2017-07-16T00:06:12.765Z,1017.09
2017-07-16T00:06:53.305Z,1017.06
2017-07-16T00:07:33.837Z,1017.05
2017-07-16T00:08:14.376Z,1017.07
2017-07-16T00:08:54.912Z,1017.06
2017-07-16T00:09:35.448Z,1017.06
2017-07-16T00:10:15.989Z,1017.05
2017-07-16T00:10:56.527Z,1017.06
2017-07-16T00:11:37.070Z,1017.06
2017-07-16T00:12:17.608Z,1017.05
2017-07-16T00:12:58.152Z,1017.06
2017-07-16T00:13:38.690Z,1017.07
2017-07-16T00:14:19.225Z,1017.04
2017-07-16T00:14:59.770Z,1017.04
2017-07-16T00:15:40.304Z,1017.06
2017-07-16T00:16:20.858Z,1017.04
2017-07-16T00:17:01.386Z,1017.09
2017-07-16T00:17:41.926Z,1017.05
2017-07-16T00:18:22.466Z,1017.07
2017-07-16T00:19:03.006Z,1017.07
2017-07-16T00:19:43.553Z,1017.08
2017-07-16T00:20:24.094Z,1017.07
2017-07-16T00:21:04.631Z,1017.04
2017-07-16T00:21:45.166Z,1017
2017-07-16T00:22:25.708Z,1017.02
2017-07-16T00:23:06.250Z,1016.99
2017-07-16T00:23:46.790Z,1016.97
2017-07-16T00:24:27.331Z,1016.96
2017-07-16T00:25:07.873Z,1016.95
2017-07-16T00:25:48.413Z,1016.94
2017-07-16T00:26:28.961Z,1016.93
2017-07-16T00:27:09.485Z,1016.95
2017-07-16T00:27:50.023Z,1016.98
2017-07-16T00:28:30.563Z,1016.96
2017-07-16T00:29:11.099Z,1017.01
2017-07-16T00:29:51.637Z,1016.96
2017-07-16T00:30:32.179Z,1017
2017-07-16T00:31:12.717Z,1016.99
2017-07-16T00:31:53.265Z,1016.99
2017-07-16T00:32:33.804Z,1017
2017-07-16T00:33:14.343Z,1017.01
2017-07-16T00:33:54.889Z,1016.99
2017-07-16T00:34:35.423Z,1016.99
2017-07-16T00:35:15.971Z,1017
2017-07-16T00:35:56.510Z,1017
2017-07-16T00:36:37.052Z,1017.01
2017-07-16T00:37:17.596Z,1016.99
2017-07-16T00:37:58.136Z,1016.98
2017-07-16T00:38:38.682Z,1016.98
2017-07-16T00:39:19.225Z,1017
2017-07-16T00:39:59.774Z,1016.98
2017-07-16T00:40:40.315Z,1016.96
2017-07-16T00:41:20.860Z,1016.94
2017-07-16T00:42:01.399Z,1017.01
2017-07-16T00:42:41.950Z,1016.99
2017-07-16T00:43:22.481Z,1016.98
2017-07-16T00:44:03.031Z,1016.98
2017-07-16T00:44:43.572Z,1017.01
2017-07-16T00:45:24.111Z,1016.96
2017-07-16T00:46:04.661Z,1016.94
2017-07-16T00:46:45.201Z,1016.95
2017-07-16T00:47:25.742Z,1016.94
2017-07-16T00:48:06.284Z,1016.96
2017-07-16T00:48:46.833Z,1016.96
2017-07-16T00:49:27.372Z,1016.92
2017-07-16T00:50:07.912Z,1016.93
2017-07-16T00:50:48.476Z,1016.93
2017-07-16T00:51:29.010Z,1016.92
2017-07-16T00:52:09.551Z,1016.95
2017-07-16T00:52:50.096Z,1016.96
2017-07-16T00:53:30.664Z,1016.93
2017-07-16T00:54:11.208Z,1016.94
2017-07-16T00:54:51.744Z,1016.96
2017-07-16T00:55:32.286Z,1016.98
2017-07-16T00:56:12.823Z,1017
2017-07-16T00:56:53.373Z,1016.99
2017-07-16T00:57:33.916Z,1016.98
2017-07-16T00:58:14.454Z,1016.98
2017-07-16T00:58:54.996Z,1016.97
2017-07-16T00:59:35.535Z,1016.99
2017-07-16T01:00:16.071Z,1016.98
2017-07-16T01:00:56.617Z,1017
2017-07-16T01:01:37.150Z,1017
2017-07-16T01:02:17.691Z,1017.06
2017-07-16T01:02:58.230Z,1017.07
2017-07-16T01:03:38.771Z,1017.06
2017-07-16T01:04:19.309Z,1017.07
2017-07-16T01:04:59.853Z,1017.08
2017-07-16T01:05:40.391Z,1017.06
2017-07-16T01:06:20.927Z,1017.08
2017-07-16T01:07:01.464Z,1017.05
2017-07-16T01:07:42.004Z,1017.06
2017-07-16T01:08:22.547Z,1017.05
2017-07-16T01:09:03.090Z,1017.05
2017-07-16T01:09:43.627Z,1017.03
2017-07-16T01:10:24.190Z,1017.02
2017-07-16T01:11:04.730Z,1017.06
2017-07-16T01:11:45.268Z,1017.08
2017-07-16T01:12:25.810Z,1017.05
2017-07-16T01:13:06.357Z,1017.05
2017-07-16T01:13:46.910Z,1017.01
2017-07-16T01:14:27.450Z,1017.03
2017-07-16T01:15:07.986Z,1017.02
2017-07-16T01:15:48.536Z,1017.06
2017-07-16T01:16:29.058Z,1017.05
2017-07-16T01:17:09.605Z,1017.06
2017-07-16T01:17:50.150Z,1017.05
2017-07-16T01:18:30.694Z,1017.09
2017-07-16T01:19:11.228Z,1017.07
2017-07-16T01:19:51.772Z,1017.08
2017-07-16T01:20:32.304Z,1017.07
2017-07-16T01:21:12.847Z,1017.09
2017-07-16T01:21:53.381Z,1017.09
2017-07-16T01:22:33.922Z,1017.1
2017-07-16T01:23:14.464Z,1017.07
2017-07-16T01:23:55.003Z,1017.11
2017-07-16T01:24:35.545Z,1017.08
2017-07-16T01:25:16.089Z,1017.07
2017-07-16T01:25:56.632Z,1017.05
2017-07-16T01:26:37.173Z,1017.07
2017-07-16T01:27:17.700Z,1017.09
2017-07-16T01:27:58.244Z,1017.07
2017-07-16T01:28:38.784Z,1017.08
2017-07-16T01:29:19.342Z,1017.06
2017-07-16T01:29:59.863Z,1017.06
2017-07-16T01:30:40.409Z,1017.08
2017-07-16T01:31:20.945Z,1017.09
2017-07-16T01:32:01.488Z,1017.08
2017-07-16T01:32:42.027Z,1017.1
2017-07-16T01:33:22.564Z,1017.08
2017-07-16T01:34:03.102Z,1017.12
2017-07-16T01:34:43.632Z,1017.1
2017-07-16T01:35:24.184Z,1017.09
2017-07-16T01:36:04.725Z,1017.1
2017-07-16T01:36:45.266Z,1017.11
2017-07-16T01:37:25.812Z,1017.13
2017-07-16T01:38:06.348Z,1017.11
2017-07-16T01:38:46.892Z,1017.14
2017-07-16T01:39:27.435Z,1017.17
2017-07-16T01:40:07.982Z,1017.16
2017-07-16T01:40:48.525Z,1017.17
2017-07-16T01:41:29.063Z,1017.19
2017-07-16T01:42:09.604Z,1017.17
2017-07-16T01:42:50.141Z,1017.17
2017-07-16T01:43:30.683Z,1017.18
2017-07-16T01:44:11.222Z,1017.16
2017-07-16T01:44:51.803Z,1017.17
2017-07-16T01:45:32.342Z,1017.2
2017-07-16T01:46:12.885Z,1017.23
2017-07-16T01:46:53.424Z,1017.25
2017-07-16T01:47:33.971Z,1017.19
2017-07-16T01:48:14.526Z,1017.17
2017-07-16T01:48:55.070Z,1017.18
2017-07-16T01:49:35.615Z,1017.17
2017-07-16T01:50:16.158Z,1017.14
2017-07-16T01:50:56.700Z,1017.15
2017-07-16T01:51:37.248Z,1017.12
2017-07-16T01:52:17.793Z,1017.16
2017-07-16T01:52:58.368Z,1017.14
2017-07-16T01:53:38.881Z,1017.12
2017-07-16T01:54:19.423Z,1017.13
2017-07-16T01:54:59.956Z,1017.08
2017-07-16T01:55:40.503Z,1017.09
2017-07-16T01:56:21.047Z,1017.09
2017-07-16T01:57:01.590Z,1017.09
2017-07-16T01:57:42.130Z,1017.08
2017-07-16T01:58:22.674Z,1017.08
2017-07-16T01:59:03.215Z,1017.1
2017-07-16T01:59:43.754Z,1017.08
2017-07-16T02:00:24.297Z,1017.08
2017-07-16T02:01:04.838Z,1017.09
2017-07-16T02:01:45.375Z,1017.1
2017-07-16T02:02:25.911Z,1017.07
2017-07-16T02:03:06.451Z,1017.08
2017-07-16T02:03:46.992Z,1017.03
2017-07-16T02:04:27.531Z,1017.01
2017-07-16T02:05:08.073Z,1017.02
2017-07-16T02:05:48.607Z,1017
2017-07-16T02:06:29.152Z,1017.01
2017-07-16T02:07:09.689Z,1017
2017-07-16T02:07:50.236Z,1017.03
2017-07-16T02:08:30.776Z,1017.02
2017-07-16T02:09:11.323Z,1017.01
2017-07-16T02:09:51.850Z,1017.03
2017-07-16T02:10:32.391Z,1017.04
2017-07-16T02:11:12.937Z,1017.02
2017-07-16T02:11:53.478Z,1017.03
2017-07-16T02:12:34.021Z,1017.02
2017-07-16T02:13:14.562Z,1017.03
2017-07-16T02:13:55.105Z,1017.04
2017-07-16T02:14:35.645Z,1017.05
2017-07-16T02:15:16.187Z,1017.1
2017-07-16T02:15:56.725Z,1017.1
2017-07-16T02:16:37.274Z,1017.13
2017-07-16T02:17:17.812Z,1017.12
2017-07-16T02:17:58.355Z,1017.16
2017-07-16T02:18:38.897Z,1017.18
2017-07-16T02:19:19.445Z,1017.15
2017-07-16T02:19:59.994Z,1017.17
2017-07-16T02:20:40.538Z,1017.17
2017-07-16T02:21:21.081Z,1017.17
2017-07-16T02:22:01.627Z,1017.17
2017-07-16T02:22:42.169Z,1017.16
2017-07-16T02:23:22.691Z,1017.17
2017-07-16T02:24:03.235Z,1017.16
2017-07-16T02:24:43.764Z,1017.16
2017-07-16T02:25:24.296Z,1017.15
2017-07-16T02:26:04.839Z,1017.19
2017-07-16T02:26:45.382Z,1017.17
2017-07-16T02:27:25.917Z,1017.2
2017-07-16T02:28:06.456Z,1017.19
2017-07-16T02:28:46.999Z,1017.22
2017-07-16T02:29:27.537Z,1017.21
2017-07-16T02:30:08.077Z,1017.2
2017-07-16T02:30:48.613Z,1017.21
2017-07-16T02:31:29.157Z,1017.29
2017-07-16T02:32:09.690Z,1017.24
2017-07-16T02:32:50.226Z,1017.24
2017-07-16T02:33:30.763Z,1017.19
2017-07-16T02:34:11.307Z,1017.21
2017-07-16T02:34:51.844Z,1017.19
2017-07-16T02:35:32.386Z,1017.21
2017-07-16T02:36:12.931Z,1017.21
2017-07-16T02:36:53.465Z,1017.19
2017-07-16T02:37:34.002Z,1017.2
2017-07-16T02:38:14.543Z,1017.18
2017-07-16T02:38:55.068Z,1017.19
2017-07-16T02:39:35.610Z,1017.19
2017-07-16T02:40:16.146Z,1017.21
2017-07-16T02:40:56.688Z,1017.18
2017-07-16T02:41:37.259Z,1017.16
2017-07-16T02:42:17.777Z,1017.16
2017-07-16T02:42:58.319Z,1017.17
2017-07-16T02:43:38.862Z,1017.2
2017-07-16T02:44:19.411Z,1017.19
2017-07-16T02:44:59.959Z,1017.18
2017-07-16T02:45:40.506Z,1017.2
2017-07-16T02:46:21.046Z,1017.19
2017-07-16T02:47:01.590Z,1017.21
2017-07-16T02:47:42.127Z,1017.2
2017-07-16T02:48:22.672Z,1017.24
2017-07-16T02:49:03.216Z,1017.24
2017-07-16T02:49:43.756Z,1017.23
2017-07-16T02:50:24.300Z,1017.26
2017-07-16T02:51:04.841Z,1017.26
2017-07-16T02:51:45.388Z,1017.29
2017-07-16T02:52:25.927Z,1017.28
2017-07-16T02:53:06.471Z,1017.28
2017-07-16T02:53:47.017Z,1017.27
2017-07-16T02:54:27.562Z,1017.31
2017-07-16T02:55:08.101Z,1017.27
2017-07-16T02:55:48.637Z,1017.27
2017-07-16T02:56:29.183Z,1017.25
2017-07-16T02:57:09.721Z,1017.26
2017-07-16T02:57:50.264Z,1017.26
2017-07-16T02:58:30.807Z,1017.27
2017-07-16T02:59:11.346Z,1017.27
2017-07-16T02:59:51.894Z,1017.19
2017-07-16T03:00:32.435Z,1017.26
2017-07-16T03:01:12.986Z,1017.23
2017-07-16T03:01:53.533Z,1017.24
2017-07-16T03:02:34.078Z,1017.24
2017-07-16T03:03:14.620Z,1017.23
2017-07-16T03:03:55.167Z,1017.21
2017-07-16T03:04:35.708Z,1017.16
2017-07-16T03:05:16.257Z,1017.19
2017-07-16T03:05:56.795Z,1017.17
2017-07-16T03:06:37.340Z,1017.13
2017-07-16T03:07:17.877Z,1017.14
2017-07-16T03:07:58.424Z,1017.14
2017-07-16T03:08:38.961Z,1017.15
2017-07-16T03:09:19.506Z,1017.13
2017-07-16T03:10:00.048Z,1017.17
2017-07-16T03:10:40.590Z,1017.14
2017-07-16T03:11:21.136Z,1017.14
2017-07-16T03:12:01.678Z,1017.16
2017-07-16T03:12:42.215Z,1017.14
2017-07-16T03:13:22.749Z,1017.13
2017-07-16T03:14:03.285Z,1017.11
2017-07-16T03:14:43.832Z,1017.13
2017-07-16T03:15:24.372Z,1017.15
2017-07-16T03:16:04.918Z,1017.15
2017-07-16T03:16:45.466Z,1017.16
2017-07-16T03:17:26.013Z,1017.13
2017-07-16T03:18:06.553Z,1017.12
2017-07-16T03:18:47.098Z,1017.15
2017-07-16T03:19:27.644Z,1017.09
2017-07-16T03:20:08.185Z,1017.07
2017-07-16T03:20:48.713Z,1017.11
2017-07-16T03:21:29.260Z,1017.09
2017-07-16T03:22:09.805Z,1017.09
2017-07-16T03:22:50.348Z,1017.05
2017-07-16T03:23:30.890Z,1017.04
2017-07-16T03:24:11.427Z,1017.06
2017-07-16T03:24:51.976Z,1017.08
2017-07-16T03:25:32.524Z,1017.1
2017-07-16T03:26:13.066Z,1017.07
2017-07-16T03:26:53.602Z,1017.09
2017-07-16T03:27:34.147Z,1017.11
2017-07-16T03:28:14.680Z,1017.12
2017-07-16T03:28:55.218Z,1017.11
2017-07-16T03:29:35.756Z,1017.11
2017-07-16T03:30:16.300Z,1017.11
2017-07-16T03:30:56.842Z,1017.09
2017-07-16T03:31:37.382Z,1017.09
2017-07-16T03:32:17.928Z,1017.11
2017-07-16T03:32:58.471Z,1017.12
2017-07-16T03:33:39.011Z,1017.13
2017-07-16T03:34:19.552Z,1017.15
2017-07-16T03:35:00.077Z,1017.16
2017-07-16T03:35:40.617Z,1017.17
2017-07-16T03:36:21.162Z,1017.18
2017-07-16T03:37:01.706Z,1017.18
2017-07-16T03:37:42.246Z,1017.21
2017-07-16T03:38:22.788Z,1017.21
2017-07-16T03:39:03.328Z,1017.18
2017-07-16T03:39:43.867Z,1017.22
2017-07-16T03:40:24.409Z,1017.22
2017-07-16T03:41:04.954Z,1017.2
2017-07-16T03:41:45.496Z,1017.19
2017-07-16T03:42:26.033Z,1017.17
2017-07-16T03:43:06.575Z,1017.15
2017-07-16T03:43:47.132Z,1017.13
2017-07-16T03:44:27.673Z,1017.13
2017-07-16T03:45:08.198Z,1017.14
2017-07-16T03:45:48.743Z,1017.15
2017-07-16T03:46:29.284Z,1017.14
2017-07-16T03:47:09.823Z,1017.15
2017-07-16T03:47:50.365Z,1017.17
2017-07-16T03:48:30.911Z,1017.19
2017-07-16T03:49:11.453Z,1017.21
2017-07-16T03:49:51.995Z,1017.23
2017-07-16T03:50:32.537Z,1017.19
2017-07-16T03:51:13.072Z,1017.23
2017-07-16T03:51:53.623Z,1017.21
2017-07-16T03:52:34.153Z,1017.23
2017-07-16T03:53:14.701Z,1017.21
2017-07-16T03:53:55.240Z,1017.23
2017-07-16T03:54:35.803Z,1017.22
2017-07-16T03:55:16.344Z,1017.22
2017-07-16T03:55:56.882Z,1017.2
2017-07-16T03:56:37.426Z,1017.2
2017-07-16T03:57:17.961Z,1017.22
2017-07-16T03:57:58.500Z,1017.21
2017-07-16T03:58:39.038Z,1017.2
2017-07-16T03:59:19.577Z,1017.21
2017-07-16T04:00:00.114Z,1017.23
2017-07-16T04:00:40.665Z,1017.19
2017-07-16T04:01:21.209Z,1017.19
2017-07-16T04:02:01.751Z,1017.19
2017-07-16T04:02:42.293Z,1017.23
2017-07-16T04:03:22.838Z,1017.24
2017-07-16T04:04:03.381Z,1017.24
2017-07-16T04:04:43.908Z,1017.23
2017-07-16T04:05:24.453Z,1017.24
2017-07-16T04:06:05.000Z,1017.25
2017-07-16T04:06:45.540Z,1017.22
2017-07-16T04:07:26.088Z,1017.26
2017-07-16T04:08:06.618Z,1017.24
2017-07-16T04:08:47.160Z,1017.26
2017-07-16T04:09:27.705Z,1017.25
2017-07-16T04:10:08.246Z,1017.26
2017-07-16T04:10:48.786Z,1017.29
2017-07-16T04:11:29.313Z,1017.23
2017-07-16T04:12:09.858Z,1017.29
2017-07-16T04:12:50.395Z,1017.23
2017-07-16T04:13:30.943Z,1017.25
2017-07-16T04:14:11.483Z,1017.22
2017-07-16T04:14:52.023Z,1017.22
2017-07-16T04:15:32.567Z,1017.2
2017-07-16T04:16:13.112Z,1017.22
2017-07-16T04:16:53.656Z,1017.19
2017-07-16T04:17:34.195Z,1017.14
2017-07-16T04:18:14.744Z,1017.14
2017-07-16T04:18:55.286Z,1017.1
2017-07-16T04:19:35.823Z,1017.13
2017-07-16T04:20:16.368Z,1017.12
2017-07-16T04:20:56.910Z,1017.1
2017-07-16T04:21:37.450Z,1017.16
2017-07-16T04:22:17.992Z,1017.13
2017-07-16T04:22:58.533Z,1017.18
2017-07-16T04:23:39.078Z,1017.15
2017-07-16T04:24:19.622Z,1017.19
2017-07-16T04:25:00.163Z,1017.2
2017-07-16T04:25:40.710Z,1017.19
2017-07-16T04:26:21.257Z,1017.19
2017-07-16T04:27:01.802Z,1017.22
2017-07-16T04:27:42.345Z,1017.21
2017-07-16T04:28:22.891Z,1017.23
2017-07-16T04:29:03.428Z,1017.23
2017-07-16T04:29:44.065Z,1017.22
2017-07-16T04:30:24.503Z,1017.2
2017-07-16T04:31:05.043Z,1017.2
2017-07-16T04:31:45.590Z,1017.19
2017-07-16T04:32:26.135Z,1017.21
2017-07-16T04:33:06.671Z,1017.22
2017-07-16T04:33:47.213Z,1017.17
2017-07-16T04:34:27.764Z,1017.19
2017-07-16T04:35:08.287Z,1017.17
2017-07-16T04:35:48.838Z,1017.16
2017-07-16T04:36:29.380Z,1017.18
2017-07-16T04:37:09.916Z,1017.19
2017-07-16T04:37:50.466Z,1017.18
2017-07-16T04:38:31.002Z,1017.16
2017-07-16T04:39:11.541Z,1017.17
2017-07-16T04:39:52.084Z,1017.17
2017-07-16T04:40:32.631Z,1017.15
2017-07-16T04:41:13.178Z,1017.14
2017-07-16T04:41:53.715Z,1017.16
2017-07-16T04:42:34.270Z,1017.12
2017-07-16T04:43:14.812Z,1017.14
2017-07-16T04:43:55.354Z,1017.17
2017-07-16T04:44:35.904Z,1017.17
2017-07-16T04:45:16.446Z,1017.2
2017-07-16T04:45:56.988Z,1017.23
2017-07-16T04:46:37.529Z,1017.21
2017-07-16T04:47:18.077Z,1017.23
2017-07-16T04:47:58.617Z,1017.23
2017-07-16T04:48:39.158Z,1017.23
2017-07-16T04:49:19.700Z,1017.25
2017-07-16T04:50:00.242Z,1017.25
2017-07-16T04:50:40.789Z,1017.26
2017-07-16T04:51:21.332Z,1017.25
2017-07-16T04:52:01.866Z,1017.26
2017-07-16T04:52:42.410Z,1017.25
2017-07-16T04:53:22.951Z,1017.25
2017-07-16T04:54:03.506Z,1017.23
2017-07-16T04:54:44.050Z,1017.24
2017-07-16T04:55:24.584Z,1017.22
2017-07-16T04:56:05.123Z,1017.24
2017-07-16T04:56:45.667Z,1017.24
2017-07-16T04:57:26.218Z,1017.22
2017-07-16T04:58:06.759Z,1017.25
2017-07-16T04:58:47.358Z,1017.25
2017-07-16T04:59:27.912Z,1017.27
2017-07-16T05:00:08.456Z,1017.25
2017-07-16T05:00:48.993Z,1017.31
2017-07-16T05:01:29.533Z,1017.27
2017-07-16T05:02:10.075Z,1017.29
2017-07-16T05:02:50.605Z,1017.28
2017-07-16T05:03:31.153Z,1017.29
2017-07-16T05:04:11.694Z,1017.29
2017-07-16T05:04:52.247Z,1017.31
2017-07-16T05:05:32.786Z,1017.3
2017-07-16T05:06:13.333Z,1017.3
2017-07-16T05:06:53.869Z,1017.33
2017-07-16T05:07:34.444Z,1017.32
2017-07-16T05:08:14.952Z,1017.32
2017-07-16T05:08:55.506Z,1017.33
2017-07-16T05:09:36.045Z,1017.36
2017-07-16T05:10:16.586Z,1017.34
2017-07-16T05:10:57.135Z,1017.34
2017-07-16T05:11:37.676Z,1017.33
2017-07-16T05:12:18.212Z,1017.36
2017-07-16T05:12:58.765Z,1017.34
2017-07-16T05:13:39.309Z,1017.34
2017-07-16T05:14:19.862Z,1017.32
2017-07-16T05:15:00.415Z,1017.3
2017-07-16T05:15:40.960Z,1017.27
2017-07-16T05:16:21.514Z,1017.29
2017-07-16T05:17:02.070Z,1017.27
2017-07-16T05:17:42.616Z,1017.31
2017-07-16T05:18:23.160Z,1017.33
2017-07-16T05:19:03.713Z,1017.33
2017-07-16T05:19:44.239Z,1017.35
2017-07-16T05:20:24.783Z,1017.36
2017-07-16T05:21:05.331Z,1017.34
2017-07-16T05:21:45.888Z,1017.38
2017-07-16T05:22:26.421Z,1017.36
2017-07-16T05:23:06.967Z,1017.4
2017-07-16T05:23:47.520Z,1017.39
2017-07-16T05:24:28.070Z,1017.4
2017-07-16T05:25:08.620Z,1017.42
2017-07-16T05:25:49.161Z,1017.39
2017-07-16T05:26:29.706Z,1017.43
2017-07-16T05:27:10.255Z,1017.45
2017-07-16T05:27:50.803Z,1017.41
2017-07-16T05:28:31.377Z,1017.42
2017-07-16T05:29:11.926Z,1017.43
2017-07-16T05:29:52.489Z,1017.43
2017-07-16T05:30:33.028Z,1017.44
2017-07-16T05:31:13.582Z,1017.48
2017-07-16T05:31:54.120Z,1017.47
2017-07-16T05:32:34.665Z,1017.5
2017-07-16T05:33:15.215Z,1017.44
2017-07-16T05:33:55.749Z,1017.48
2017-07-16T05:34:36.295Z,1017.46
2017-07-16T05:35:16.833Z,1017.48
2017-07-16T05:35:57.356Z,1017.47
2017-07-16T05:36:37.907Z,1017.48
2017-07-16T05:37:18.437Z,1017.45
2017-07-16T05:37:58.977Z,1017.46
2017-07-16T05:38:39.525Z,1017.46
2017-07-16T05:39:20.075Z,1017.44
2017-07-16T05:40:00.619Z,1017.51
2017-07-16T05:40:41.174Z,1017.5
2017-07-16T05:41:21.724Z,1017.53
2017-07-16T05:42:02.270Z,1017.51
2017-07-16T05:42:42.814Z,1017.53
2017-07-16T05:43:23.382Z,1017.47
2017-07-16T05:44:03.944Z,1017.49
2017-07-16T05:44:44.486Z,1017.53
2017-07-16T05:45:25.028Z,1017.5
2017-07-16T05:46:05.576Z,1017.52
2017-07-16T05:46:46.123Z,1017.55
2017-07-16T05:47:26.672Z,1017.57
2017-07-16T05:48:07.223Z,1017.57
2017-07-16T05:48:47.765Z,1017.56
2017-07-16T05:49:28.762Z,1017.56
2017-07-16T05:50:10.395Z,1017.57
2017-07-16T05:50:51.989Z,1017.57
2017-07-16T05:51:32.534Z,1017.59
2017-07-16T05:52:13.077Z,1017.56
2017-07-16T05:52:53.621Z,1017.59
2017-07-16T05:53:34.157Z,1017.58
2017-07-16T05:54:14.704Z,1017.57
2017-07-16T05:54:55.241Z,1017.6
2017-07-16T05:55:35.788Z,1017.61
2017-07-16T05:56:16.332Z,1017.61
2017-07-16T05:56:56.870Z,1017.63
2017-07-16T05:57:37.412Z,1017.65
2017-07-16T05:58:17.961Z,1017.67
2017-07-16T05:58:58.508Z,1017.65
2017-07-16T05:59:39.041Z,1017.65
2017-07-16T06:00:19.584Z,1017.63
2017-07-16T06:01:00.129Z,1017.64
2017-07-16T06:01:40.685Z,1017.68
2017-07-16T06:02:21.212Z,1017.65
2017-07-16T06:03:01.745Z,1017.65
2017-07-16T06:03:42.284Z,1017.66
2017-07-16T06:04:22.834Z,1017.61
2017-07-16T06:05:03.369Z,1017.65
2017-07-16T06:05:43.915Z,1017.65
2017-07-16T06:06:24.462Z,1017.65
2017-07-16T06:07:05.008Z,1017.67
2017-07-16T06:07:45.564Z,1017.64
2017-07-16T06:08:26.109Z,1017.65
2017-07-16T06:09:06.660Z,1017.67
2017-07-16T06:09:47.203Z,1017.63
2017-07-16T06:10:27.747Z,1017.61
2017-07-16T06:11:08.292Z,1017.63
2017-07-16T06:11:48.834Z,1017.62
2017-07-16T06:12:29.385Z,1017.66
2017-07-16T06:13:09.927Z,1017.65
2017-07-16T06:13:50.493Z,1017.64
2017-07-16T06:14:31.040Z,1017.61
2017-07-16T06:15:11.571Z,1017.65
2017-07-16T06:15:52.111Z,1017.63
2017-07-16T06:16:32.660Z,1017.58
2017-07-16T06:17:13.202Z,1017.6
2017-07-16T06:17:53.744Z,1017.58
2017-07-16T06:18:34.293Z,1017.61
2017-07-16T06:19:14.841Z,1017.64
2017-07-16T06:19:55.383Z,1017.67
2017-07-16T06:20:35.930Z,1017.68
2017-07-16T06:21:16.476Z,1017.68
2017-07-16T06:21:57.013Z,1017.72
2017-07-16T06:22:37.553Z,1017.72
2017-07-16T06:23:18.097Z,1017.72
2017-07-16T06:23:58.633Z,1017.71
2017-07-16T06:24:39.173Z,1017.73
2017-07-16T06:25:19.714Z,1017.76
2017-07-16T06:26:00.260Z,1017.75
2017-07-16T06:26:40.800Z,1017.74
2017-07-16T06:27:21.354Z,1017.73
2017-07-16T06:28:01.889Z,1017.75
2017-07-16T06:28:42.435Z,1017.77
2017-07-16T06:29:22.986Z,1017.77
2017-07-16T06:30:03.530Z,1017.75
2017-07-16T06:30:44.068Z,1017.83
2017-07-16T06:31:24.614Z,1017.77
2017-07-16T06:32:05.162Z,1017.79
2017-07-16T06:32:45.705Z,1017.8
2017-07-16T06:33:26.241Z,1017.79
2017-07-16T06:34:06.778Z,1017.82
2017-07-16T06:34:47.310Z,1017.85
2017-07-16T06:35:27.860Z,1017.84
2017-07-16T06:36:08.412Z,1017.81
2017-07-16T06:36:48.948Z,1017.83
2017-07-16T06:37:29.523Z,1017.87
2017-07-16T06:38:10.065Z,1017.82
2017-07-16T06:38:50.614Z,1017.85
2017-07-16T06:39:31.156Z,1017.84
2017-07-16T06:40:11.695Z,1017.86
2017-07-16T06:40:52.239Z,1017.88
2017-07-16T06:41:32.777Z,1017.88
2017-07-16T06:42:13.325Z,1017.91
2017-07-16T06:42:53.873Z,1017.93
2017-07-16T06:43:34.428Z,1017.91
2017-07-16T06:44:14.977Z,1017.92
2017-07-16T06:44:55.517Z,1017.91
2017-07-16T06:45:36.070Z,1017.96
2017-07-16T06:46:16.612Z,1017.96
2017-07-16T06:46:57.155Z,1017.97
2017-07-16T06:47:37.694Z,1017.98
2017-07-16T06:48:18.244Z,1017.95
2017-07-16T06:48:58.781Z,1018
2017-07-16T06:49:39.317Z,1017.98
2017-07-16T06:50:19.865Z,1017.99
2017-07-16T06:51:00.408Z,1017.97
2017-07-16T06:51:40.949Z,1017.99
2017-07-16T06:52:21.495Z,1018
2017-07-16T06:53:02.038Z,1018.02
2017-07-16T06:53:42.584Z,1018.02
2017-07-16T06:54:23.119Z,1018.04
2017-07-16T06:55:03.652Z,1018.04
2017-07-16T06:55:44.197Z,1018.06
2017-07-16T06:56:24.738Z,1018.09
2017-07-16T06:57:05.275Z,1018.09
2017-07-16T06:57:45.815Z,1018.06
2017-07-16T06:58:26.363Z,1018.09
2017-07-16T06:59:06.906Z,1018.07
2017-07-16T06:59:47.448Z,1018.08
2017-07-16T07:00:27.995Z,1018.09
2017-07-16T07:01:08.541Z,1018.13
2017-07-16T07:01:49.088Z,1018.12
2017-07-16T07:02:29.635Z,1018.1
2017-07-16T07:03:10.177Z,1018.07
2017-07-16T07:03:50.713Z,1018.06
2017-07-16T07:04:31.245Z,1018.11
2017-07-16T07:05:11.785Z,1018.1
2017-07-16T07:05:52.327Z,1018.1
2017-07-16T07:06:32.875Z,1018.07
2017-07-16T07:07:13.423Z,1018.11
2017-07-16T07:07:53.997Z,1018.1
2017-07-16T07:08:34.546Z,1018.1
2017-07-16T07:09:15.083Z,1018.09
2017-07-16T07:09:55.629Z,1018.07
2017-07-16T07:10:36.177Z,1018.12
2017-07-16T07:11:16.723Z,1018.08
2017-07-16T07:11:57.264Z,1018.07
2017-07-16T07:12:37.813Z,1018.07
2017-07-16T07:13:18.357Z,1018.16
2017-07-16T07:13:58.891Z,1018.11
2017-07-16T07:14:39.438Z,1018.12
2017-07-16T07:15:19.993Z,1018.14
2017-07-16T07:16:00.525Z,1018.15
2017-07-16T07:16:41.055Z,1018.12
2017-07-16T07:17:21.606Z,1018.12
2017-07-16T07:18:02.149Z,1018.12
2017-07-16T07:18:42.689Z,1018.13
2017-07-16T07:19:23.237Z,1018.11
2017-07-16T07:20:03.779Z,1018.12
2017-07-16T07:20:44.329Z,1018.14
2017-07-16T07:21:24.869Z,1018.1
2017-07-16T07:22:05.417Z,1018.13
2017-07-16T07:22:45.956Z,1018.1
2017-07-16T07:23:26.498Z,1018.13
2017-07-16T07:24:07.043Z,1018.17
2017-07-16T07:24:47.584Z,1018.13
2017-07-16T07:25:28.115Z,1018.12
2017-07-16T07:26:08.664Z,1018.11
2017-07-16T07:26:49.206Z,1018.12
2017-07-16T07:27:29.749Z,1018.1
2017-07-16T07:28:10.290Z,1018.07
2017-07-16T07:28:50.835Z,1018.1
2017-07-16T07:29:31.379Z,1018.07
2017-07-16T07:30:11.925Z,1018.06
2017-07-16T07:30:52.472Z,1018.05
2017-07-16T07:31:33.020Z,1018.06
2017-07-16T07:32:13.544Z,1018.05
2017-07-16T07:32:54.089Z,1018.05
2017-07-16T07:33:34.632Z,1018.05
2017-07-16T07:34:15.175Z,1018.04
2017-07-16T07:34:55.757Z,1018.05
2017-07-16T07:35:36.314Z,1018.05
2017-07-16T07:36:16.855Z,1018.03
2017-07-16T07:36:57.393Z,1018.03
2017-07-16T07:37:37.935Z,1018.02
2017-07-16T07:38:18.472Z,1018.04
2017-07-16T07:38:59.015Z,1018.05
2017-07-16T07:39:39.563Z,1018.04
2017-07-16T07:40:20.105Z,1018.03
2017-07-16T07:41:00.644Z,1018.04
2017-07-16T07:41:41.192Z,1018.02
2017-07-16T07:42:21.737Z,1018.03
2017-07-16T07:43:02.272Z,1018.02
2017-07-16T07:43:42.808Z,1018.02
2017-07-16T07:44:23.343Z,1017.95
2017-07-16T07:45:03.896Z,1018
2017-07-16T07:45:44.436Z,1018
2017-07-16T07:46:24.977Z,1017.99
2017-07-16T07:47:05.518Z,1018.03
2017-07-16T07:47:46.061Z,1017.99
2017-07-16T07:48:26.607Z,1018.03
2017-07-16T07:49:07.149Z,1017.99
2017-07-16T07:49:47.694Z,1018.03
2017-07-16T07:50:28.228Z,1018.01
2017-07-16T07:51:08.766Z,1018.01
2017-07-16T07:51:49.311Z,1018
2017-07-16T07:52:29.846Z,1018.01
2017-07-16T07:53:10.395Z,1018.02
2017-07-16T07:53:50.942Z,1018.01
2017-07-16T07:54:31.480Z,1018.01
2017-07-16T07:55:12.026Z,1017.99
2017-07-16T07:55:52.570Z,1018.02
2017-07-16T07:56:33.119Z,1018.01
2017-07-16T07:57:13.666Z,1017.95
2017-07-16T07:57:54.213Z,1017.96
2017-07-16T07:58:34.760Z,1017.97
2017-07-16T07:59:15.308Z,1017.99
2017-07-16T07:59:55.862Z,1017.98
2017-07-16T08:00:36.848Z,1017.99
2017-07-16T08:01:17.397Z,1017.93
2017-07-16T08:01:57.933Z,1017.97
2017-07-16T08:02:38.476Z,1017.93
2017-07-16T08:03:19.024Z,1018
2017-07-16T08:03:59.573Z,1017.94
2017-07-16T08:04:40.124Z,1017.95
2017-07-16T08:05:20.669Z,1017.98
2017-07-16T08:06:01.279Z,1017.98
2017-07-16T08:06:41.851Z,1017.98
2017-07-16T08:07:22.388Z,1017.98
2017-07-16T08:08:02.929Z,1017.99
2017-07-16T08:08:43.475Z,1017.98
2017-07-16T08:09:24.018Z,1017.99
2017-07-16T08:10:04.563Z,1018.01
2017-07-16T08:10:45.109Z,1018.02
2017-07-16T08:11:25.662Z,1018
2017-07-16T08:12:06.208Z,1017.99